Time;durP1;ratioP1;P1;durP2;ratioP2;P2;SDS_P1;SDS_P2;PMS_P1;PMS_P2;Temp;Humidity;BMP_temperature;BMP_pressure;BME280_temperature;BME280_humidity;BME280_pressure;Samples;Min_cycle;Max_cycle;Signal;HPM_P1;HPM_P2
2022/08/27 00:01:36;;;;;;;3.80;0.88;;;16.00;99.90;;;;;;5093561;28;20047;-61
2022/08/27 00:04:02;;;;;;;0.80;0.60;;;16.00;99.90;;;;;;5095007;28;20040;-62
2022/08/27 00:06:28;;;;;;;1.15;0.73;;;16.10;99.90;;;;;;5076662;28;20376;-62
2022/08/27 00:08:54;;;;;;;1.48;0.60;;;16.00;99.90;;;;;;5093664;28;20101;-62
2022/08/27 00:11:21;;;;;;;1.45;0.90;;;16.10;99.90;;;;;;5094819;28;20090;-61
2022/08/27 00:13:47;;;;;;;3.88;0.75;;;16.00;99.90;;;;;;5094532;28;20393;-62
2022/08/27 00:16:15;;;;;;;2.08;0.95;;;16.00;99.90;;;;;;5094896;28;20047;-62
2022/08/27 00:18:42;;;;;;;0.80;0.70;;;16.00;99.90;;;;;;5094673;28;20115;-62
2022/08/27 00:21:07;;;;;;;3.20;0.95;;;16.00;99.90;;;;;;5094631;28;20074;-62
2022/08/27 00:23:35;;;;;;;1.67;0.40;;;15.90;99.90;;;;;;5094738;28;20029;-62
2022/08/27 00:26:01;;;;;;;0.98;0.55;;;16.00;99.90;;;;;;5094250;28;20040;-62
2022/08/27 00:28:28;;;;;;;1.58;0.77;;;16.00;99.90;;;;;;5093371;28;20051;-61
2022/08/27 00:30:54;;;;;;;0.88;0.60;;;16.00;99.90;;;;;;5094441;28;20036;-62
2022/08/27 00:33:21;;;;;;;1.10;0.68;;;16.00;99.90;;;;;;5094560;28;20036;-62
2022/08/27 00:35:47;;;;;;;0.70;0.57;;;16.00;99.90;;;;;;5094101;28;20403;-62
2022/08/27 00:38:13;;;;;;;1.05;0.57;;;16.00;99.90;;;;;;5094128;28;20048;-62
2022/08/27 00:40:39;;;;;;;1.02;0.70;;;16.00;99.90;;;;;;5094346;28;20040;-62
2022/08/27 00:43:05;;;;;;;1.77;0.82;;;16.00;99.90;;;;;;5093903;28;20036;-61
2022/08/27 00:45:37;;;;;;;0.88;0.70;;;16.00;99.90;;;;;;5094368;28;20036;-62
2022/08/27 00:48:05;;;;;;;1.00;0.90;;;16.00;99.90;;;;;;5094257;28;20042;-62
2022/08/27 00:50:53;;;;;;;0.80;0.50;;;16.00;99.90;;;;;;5092884;28;20081;-62
2022/08/27 00:53:25;;;;;;;0.85;0.70;;;16.00;99.90;;;;;;5094008;28;20138;-62
2022/08/27 00:56:12;;;;;;;1.08;0.82;;;16.00;99.90;;;;;;5093933;28;20548;-62
2022/08/27 00:58:42;;;;;;;1.85;0.70;;;16.00;99.90;;;;;;5093705;28;20040;-62
2022/08/27 01:01:11;;;;;;;1.13;0.77;;;16.00;99.90;;;;;;5094068;28;20044;-62
2022/08/27 01:03:38;;;;;;;1.38;0.75;;;16.00;99.90;;;;;;5092387;28;20089;-62
2022/08/27 01:06:09;;;;;;;1.75;0.80;;;16.10;99.90;;;;;;5075698;28;20044;-62
2022/08/27 01:08:38;;;;;;;1.65;0.70;;;16.00;99.90;;;;;;5093560;28;20040;-62
2022/08/27 01:11:04;;;;;;;2.08;0.75;;;16.00;99.90;;;;;;5093990;28;20028;-62
2022/08/27 01:13:31;;;;;;;1.15;0.73;;;16.00;99.90;;;;;;5093387;28;20067;-62
2022/08/27 01:15:58;;;;;;;4.25;0.77;;;16.00;99.90;;;;;;5093731;28;20410;-62
2022/08/27 01:18:31;;;;;;;0.82;0.68;;;16.00;99.90;;;;;;5093780;28;20092;-62
2022/08/27 01:20:57;;;;;;;0.90;0.60;;;16.00;99.90;;;;;;5093405;28;20036;-62
2022/08/27 01:23:41;;;;;;;1.55;0.70;;;15.90;99.90;;;;;;5092148;28;20043;-62
2022/08/27 01:26:11;;;;;;;0.80;0.50;;;15.90;99.90;;;;;;5092135;28;20085;-62
2022/08/27 01:28:37;;;;;;;1.70;0.60;;;15.90;99.90;;;;;;5092375;28;20048;-62
2022/08/27 01:31:06;;;;;;;1.75;0.90;;;15.90;99.90;;;;;;5092218;28;20058;-62
2022/08/27 01:33:32;;;;;;;1.17;0.73;;;15.90;99.90;;;;;;5093192;28;20055;-62
2022/08/27 01:35:57;;;;;;;0.68;0.68;;;15.90;99.90;;;;;;5092138;28;20119;-63
2022/08/27 01:38:23;;;;;;;3.92;0.80;;;15.80;99.90;;;;;;5093495;28;20036;-62
2022/08/27 01:40:49;;;;;;;5.38;1.00;;;15.80;99.90;;;;;;5091861;28;20050;-61
2022/08/27 01:43:15;;;;;;;6.38;1.00;;;15.80;99.90;;;;;;5093339;28;20119;-62
2022/08/27 01:45:47;;;;;;;3.10;0.90;;;15.70;99.90;;;;;;5092066;28;20043;-62
2022/08/27 01:48:14;;;;;;;4.25;0.90;;;15.70;99.90;;;;;;5093336;28;20487;-62
2022/08/27 01:50:41;;;;;;;2.53;0.98;;;15.70;99.90;;;;;;5092122;28;20127;-61
2022/08/27 01:53:10;;;;;;;1.65;0.55;;;15.60;99.90;;;;;;5091759;28;20048;-62
2022/08/27 01:55:37;;;;;;;1.63;0.80;;;15.60;99.90;;;;;;5095285;28;20404;-62
2022/08/27 01:58:03;;;;;;;2.85;0.85;;;15.60;99.90;;;;;;5079233;28;20040;-62
2022/08/27 02:00:38;;;;;;;1.05;0.75;;;15.50;99.90;;;;;;5096343;28;20048;-65
2022/08/27 02:03:06;;;;;;;2.47;0.93;;;15.50;99.90;;;;;;5097001;28;20085;-65
2022/08/27 02:05:32;;;;;;;1.70;0.80;;;15.50;99.90;;;;;;5097183;28;20044;-65
2022/08/27 02:07:58;;;;;;;1.95;1.08;;;15.40;99.90;;;;;;5097238;28;20088;-65
2022/08/27 02:10:31;;;;;;;2.00;0.77;;;15.40;1.00;;;;;;5096821;28;20039;-65
2022/08/27 02:12:57;;;;;;;2.03;0.80;;;15.30;1.00;;;;;;5096590;28;20048;-65
2022/08/27 02:15:23;;;;;;;1.92;0.90;;;15.30;1.00;;;;;;5095328;28;20052;-65
2022/08/27 02:17:50;;;;;;;2.00;0.73;;;15.20;1.00;;;;;;5096890;28;20040;-65
2022/08/27 02:20:17;;;;;;;1.70;0.98;;;15.20;1.00;;;;;;5096885;28;20110;-65
2022/08/27 02:22:43;;;;;;;0.98;0.68;;;15.20;1.00;;;;;;5096881;28;20391;-65
2022/08/27 02:25:12;;;;;;;1.20;0.85;;;15.10;1.00;;;;;;5096534;28;20123;-65
2022/08/27 02:27:41;;;;;;;3.47;0.88;;;15.10;1.00;;;;;;5095552;28;20032;-65
2022/08/27 02:30:11;;;;;;;1.10;0.77;;;15.00;1.00;;;;;;5096466;28;20032;-65
2022/08/27 02:32:36;;;;;;;1.27;0.90;;;15.10;1.00;;;;;;5096679;28;20059;-65
2022/08/27 02:35:03;;;;;;;2.40;1.15;;;15.00;1.00;;;;;;5096284;28;20036;-65
2022/08/27 02:37:29;;;;;;;1.98;0.70;;;15.00;1.00;;;;;;5096537;28;20036;-65
2022/08/27 02:39:55;;;;;;;2.10;0.80;;;15.00;1.00;;;;;;5096550;28;20035;-65
2022/08/27 02:42:21;;;;;;;1.80;0.75;;;15.00;1.00;;;;;;5096430;28;20093;-65
2022/08/27 02:44:47;;;;;;;2.40;0.80;;;14.90;1.00;;;;;;5096433;28;20040;-65
2022/08/27 02:47:13;;;;;;;1.92;0.93;;;14.90;1.00;;;;;;5096411;28;20483;-65
2022/08/27 02:49:39;;;;;;;1.13;0.75;;;14.90;1.00;;;;;;5094845;28;20043;-65
2022/08/27 02:52:04;;;;;;;1.38;0.93;;;14.90;1.00;;;;;;5095093;28;20055;-65
2022/08/27 02:54:31;;;;;;;3.08;0.93;;;14.90;1.00;;;;;;5096536;28;20040;-65
2022/08/27 02:56:56;;;;;;;0.70;0.60;;;15.00;1.00;;;;;;5095898;28;20131;-65
2022/08/27 02:59:22;;;;;;;1.02;0.70;;;15.00;1.00;;;;;;5096202;28;20136;-65
2022/08/27 03:01:48;;;;;;;1.10;0.88;;;15.00;1.00;;;;;;5095894;28;20498;-65
2022/08/27 03:04:15;;;;;;;2.75;0.68;;;15.10;1.00;;;;;;5095790;28;20028;-65
2022/08/27 03:06:40;;;;;;;1.48;0.90;;;15.10;1.00;;;;;;5095684;28;20047;-65
2022/08/27 03:09:09;;;;;;;1.42;1.00;;;15.10;1.00;;;;;;5096008;28;20040;-65
2022/08/27 03:11:35;;;;;;;1.27;1.00;;;15.10;1.00;;;;;;5095966;28;20048;-65
2022/08/27 03:14:01;;;;;;;2.15;0.68;;;15.20;1.00;;;;;;5095596;28;20388;-65
2022/08/27 03:16:26;;;;;;;1.63;0.73;;;15.10;1.00;;;;;;5095368;28;20078;-65
2022/08/27 03:18:52;;;;;;;0.77;0.75;;;15.20;1.00;;;;;;5095899;28;20089;-65
2022/08/27 03:21:21;;;;;;;1.95;0.85;;;15.50;1.00;;;;;;5094276;28;20044;-65
2022/08/27 03:23:47;;;;;;;0.98;0.73;;;15.20;1.00;;;;;;5094214;28;20043;-64
2022/08/27 03:26:13;;;;;;;1.80;0.80;;;15.20;1.00;;;;;;5095653;28;20044;-64
2022/08/27 03:28:39;;;;;;;2.15;0.98;;;15.20;1.00;;;;;;5077261;28;20063;-65
2022/08/27 03:31:07;;;;;;;1.23;0.57;;;15.30;1.00;;;;;;5095588;28;20047;-64
2022/08/27 03:33:36;;;;;;;1.02;0.68;;;15.40;1.00;;;;;;5095239;28;20166;-65
2022/08/27 03:36:03;;;;;;;1.95;0.90;;;15.30;1.00;;;;;;5095395;28;20077;-64
2022/08/27 03:38:29;;;;;;;1.13;0.73;;;15.30;1.00;;;;;;5095426;28;20044;-64
2022/08/27 03:40:55;;;;;;;4.95;0.80;;;15.40;1.00;;;;;;5095059;28;20039;-65
2022/08/27 03:43:22;;;;;;;2.17;0.77;;;15.20;1.00;;;;;;5094058;28;20052;-65
2022/08/27 03:45:49;;;;;;;0.70;0.68;;;15.20;1.00;;;;;;5095355;28;20048;-64
2022/08/27 03:48:15;;;;;;;1.60;0.77;;;15.20;1.00;;;;;;5095279;28;20039;-64
2022/08/27 03:50:43;;;;;;;2.72;0.70;;;15.20;1.00;;;;;;5094852;28;20040;-65
2022/08/27 03:53:10;;;;;;;1.20;0.90;;;15.10;1.00;;;;;;5095314;28;20127;-64
2022/08/27 03:55:36;;;;;;;1.00;0.68;;;15.10;1.00;;;;;;5094749;28;20036;-64
2022/08/27 03:58:02;;;;;;;1.88;0.85;;;15.10;1.00;;;;;;5095043;28;20111;-65
2022/08/27 04:00:27;;;;;;;1.05;0.70;;;15.10;1.00;;;;;;5094688;28;20076;-65
2022/08/27 04:02:54;;;;;;;1.08;0.80;;;15.00;1.00;;;;;;5094669;28;20047;-65
2022/08/27 04:05:21;;;;;;;2.15;0.70;;;15.00;1.00;;;;;;5094547;28;20040;-65
2022/08/27 04:07:47;;;;;;;1.60;0.80;;;15.00;1.00;;;;;;5094538;28;20051;-65
2022/08/27 04:10:15;;;;;;;1.02;0.60;;;15.00;1.00;;;;;;5094508;28;20046;-64
2022/08/27 04:12:41;;;;;;;3.03;0.90;;;15.00;1.00;;;;;;5094265;28;20032;-64
2022/08/27 04:15:09;;;;;;;1.63;0.90;;;15.00;1.00;;;;;;5094360;28;20122;-65
2022/08/27 04:17:35;;;;;;;2.85;0.70;;;14.90;1.00;;;;;;5092948;28;20392;-65
2022/08/27 04:20:01;;;;;;;1.25;0.88;;;14.90;1.00;;;;;;5093086;28;20051;-65
2022/08/27 04:22:27;;;;;;;0.90;0.55;;;15.00;1.00;;;;;;5094296;28;20047;-65
2022/08/27 04:24:53;;;;;;;1.15;0.85;;;15.00;1.00;;;;;;5094250;28;20115;-65
2022/08/27 04:27:20;;;;;;;6.15;1.27;;;15.00;1.00;;;;;;5094185;28;20044;-65
2022/08/27 04:29:46;;;;;;;1.50;0.85;;;15.00;1.00;;;;;;5093254;28;20052;-65
2022/08/27 04:32:13;;;;;;;1.67;0.65;;;15.00;1.00;;;;;;5094399;28;20035;-65
2022/08/27 04:34:39;;;;;;;1.80;1.00;;;15.10;1.00;;;;;;5093190;28;20548;-64
2022/08/27 04:37:05;;;;;;;2.00;0.90;;;15.10;1.00;;;;;;5093992;28;20039;-65
2022/08/27 04:39:31;;;;;;;1.15;0.80;;;15.10;1.00;;;;;;5092683;28;20044;-64
2022/08/27 04:41:59;;;;;;;2.15;0.70;;;15.10;1.00;;;;;;5094164;28;20038;-65
2022/08/27 04:44:27;;;;;;;0.82;0.70;;;15.10;1.00;;;;;;5093908;28;20115;-65
2022/08/27 04:46:59;;;;;;;1.52;0.82;;;15.10;1.00;;;;;;5094177;28;20076;-64
2022/08/27 04:49:26;;;;;;;1.55;0.70;;;15.10;1.00;;;;;;5093771;28;20036;-65
2022/08/27 04:51:52;;;;;;;1.00;0.60;;;15.00;1.00;;;;;;5094033;28;20433;-65
2022/08/27 04:54:18;;;;;;;1.15;0.70;;;15.00;1.00;;;;;;5093936;28;20063;-65
2022/08/27 04:56:44;;;;;;;0.82;0.52;;;15.00;1.00;;;;;;5093825;28;20075;-65
2022/08/27 04:59:11;;;;;;;1.58;0.70;;;15.00;1.00;;;;;;5093794;28;20040;-65
2022/08/27 05:01:38;;;;;;;0.85;0.50;;;15.00;1.00;;;;;;5093571;28;20051;-64
2022/08/27 05:04:04;;;;;;;0.88;0.77;;;15.00;1.00;;;;;;5093854;28;20070;-65
2022/08/27 05:06:31;;;;;;;1.85;0.73;;;15.00;1.00;;;;;;5093736;28;20032;-65
2022/08/27 05:08:57;;;;;;;1.05;0.77;;;15.00;1.00;;;;;;5093464;28;20048;-65
2022/08/27 05:11:31;;;;;;;1.35;0.68;;;15.00;1.00;;;;;;5093718;28;20072;-65
2022/08/27 05:13:57;;;;;;;2.50;0.93;;;14.90;1.00;;;;;;5093288;28;20507;-65
2022/08/27 05:16:23;;;;;;;4.68;1.38;;;14.90;1.00;;;;;;5093302;28;20043;-65
2022/08/27 05:18:51;;;;;;;0.60;0.57;;;14.80;1.00;;;;;;5093318;28;20454;-65
2022/08/27 05:21:21;;;;;;;1.75;0.75;;;14.80;1.00;;;;;;5093527;28;20044;-65
2022/08/27 05:23:47;;;;;;;2.97;1.00;;;14.80;1.00;;;;;;5093519;28;20069;-65
2022/08/27 05:26:14;;;;;;;1.63;0.93;;;14.80;1.00;;;;;;5093470;28;20082;-65
2022/08/27 05:28:39;;;;;;;1.77;0.88;;;14.70;1.00;;;;;;5093371;28;20040;-65
2022/08/27 05:31:08;;;;;;;5.68;1.10;;;15.00;1.00;;;;;;5092670;28;20109;-65
2022/08/27 05:33:34;;;;;;;1.70;0.80;;;14.80;1.00;;;;;;5093401;28;20039;-65
2022/08/27 05:36:01;;;;;;;1.20;0.90;;;14.80;1.00;;;;;;5092956;28;20040;-65
2022/08/27 05:38:29;;;;;;;2.10;1.00;;;14.70;1.00;;;;;;5092935;28;20036;-65
2022/08/27 05:41:07;;;;;;;2.47;1.08;;;14.70;1.00;;;;;;5092961;28;20036;-65
2022/08/27 05:43:35;;;;;;;2.42;1.15;;;14.80;1.00;;;;;;5092905;28;20119;-65
2022/08/27 05:46:05;;;;;;;2.22;0.80;;;14.80;1.00;;;;;;5093236;28;20054;-64
2022/08/27 05:48:32;;;;;;;3.45;0.90;;;14.80;1.00;;;;;;5093193;28;20104;-64
2022/08/27 05:51:13;;;;;;;2.03;1.00;;;14.80;1.00;;;;;;5091565;28;20055;-65
2022/08/27 05:53:40;;;;;;;0.85;0.70;;;14.80;1.00;;;;;;5093189;28;20051;-65
2022/08/27 05:56:21;;;;;;;1.02;0.88;;;14.80;1.00;;;;;;5092844;28;20091;-64
2022/08/27 06:01:37;;;;;;;1.25;0.60;;;14.80;1.00;;;;;;5092934;28;20470;-65
2022/08/27 06:04:03;;;;;;;0.85;0.70;;;14.80;1.00;;;;;;5093392;28;20041;-65
2022/08/27 06:06:33;;;;;;;1.08;0.70;;;14.80;1.00;;;;;;5092727;28;20043;-65
2022/08/27 06:08:58;;;;;;;1.08;0.77;;;14.90;1.00;;;;;;5093064;28;20036;-65
2022/08/27 06:11:24;;;;;;;0.75;0.70;;;15.00;1.00;;;;;;5092627;28;20046;-65
2022/08/27 06:13:50;;;;;;;2.45;1.02;;;15.10;1.00;;;;;;5092556;28;20067;-65
2022/08/27 06:16:18;;;;;;;1.77;0.90;;;15.20;1.00;;;;;;5092521;28;20052;-65
2022/08/27 06:18:45;;;;;;;1.00;0.70;;;15.30;1.00;;;;;;5092833;28;20047;-65
2022/08/27 06:21:13;;;;;;;0.70;0.50;;;15.50;1.00;;;;;;5092669;28;20043;-66
2022/08/27 06:23:38;;;;;;;1.23;0.90;;;15.70;1.00;;;;;;5092938;28;20111;-65
2022/08/27 06:26:06;;;;;;;1.08;0.60;;;15.80;1.00;;;;;;5092660;28;20154;-65
2022/08/27 06:28:33;;;;;;;1.52;0.65;;;16.00;1.00;;;;;;5092627;28;20035;-65
2022/08/27 06:31:11;;;;;;;1.48;0.85;;;16.20;1.00;;;;;;5091085;28;20109;-65
2022/08/27 06:33:38;;;;;;;0.93;0.60;;;16.40;1.00;;;;;;5092578;28;20043;-65
2022/08/27 06:36:07;;;;;;;1.15;0.93;;;16.60;1.00;;;;;;5092499;28;20166;-65
2022/08/27 06:38:33;;;;;;;2.47;0.95;;;16.70;1.00;;;;;;5090907;28;20044;-65
2022/08/27 06:40:59;;;;;;;2.15;1.00;;;16.90;1.00;;;;;;5093435;28;20111;-65
2022/08/27 06:43:25;;;;;;;0.95;0.60;;;17.00;1.00;;;;;;5096041;28;20079;-65
2022/08/27 06:45:52;;;;;;;0.80;0.68;;;17.20;99.90;;;;;;5095990;28;20043;-65
2022/08/27 06:48:18;;;;;;;1.08;0.70;;;17.40;99.90;;;;;;5094755;28;20052;-65
2022/08/27 06:50:44;;;;;;;1.63;0.88;;;17.60;99.90;;;;;;5096235;28;20038;-65
2022/08/27 06:53:11;;;;;;;2.17;1.15;;;18.00;99.90;;;;;;5096258;28;20105;-65
2022/08/27 06:55:42;;;;;;;1.15;0.60;;;18.10;99.90;;;;;;5096046;28;20092;-65
2022/08/27 06:58:08;;;;;;;2.03;0.90;;;18.30;99.90;;;;;;5095033;28;20491;-65
2022/08/27 07:00:33;;;;;;;1.30;0.60;;;18.70;99.90;;;;;;5096235;28;20043;-66
2022/08/27 07:03:00;;;;;;;5.03;0.80;;;18.90;21.60;;;;;;5077819;28;20127;-66
2022/08/27 07:05:26;;;;;;;1.05;0.68;;;19.10;99.90;;;;;;5095687;28;20036;-66
2022/08/27 07:07:52;;;;;;;0.60;0.47;;;19.40;1.00;;;;;;5094821;28;20051;-66
2022/08/27 07:10:18;;;;;;;3.05;0.88;;;19.30;1.00;;;;;;5095852;28;20395;-66
2022/08/27 07:12:44;;;;;;;2.03;0.70;;;19.20;99.90;;;;;;5095805;28;20098;-66
2022/08/27 07:15:10;;;;;;;1.42;0.80;;;19.30;99.90;;;;;;5095796;28;20432;-66
2022/08/27 07:17:35;;;;;;;4.78;0.60;;;19.30;99.90;;;;;;5095860;28;20036;-66
2022/08/27 07:20:02;;;;;;;1.65;0.73;;;19.30;99.90;;;;;;5095836;28;20040;-66
2022/08/27 07:22:28;;;;;;;3.72;0.85;;;19.30;99.90;;;;;;5095411;28;20040;-66
2022/08/27 07:24:54;;;;;;;2.30;0.80;;;19.30;99.90;;;;;;5095819;28;20502;-66
2022/08/27 07:27:20;;;;;;;3.70;0.80;;;19.20;99.90;;;;;;5095450;28;20075;-66
2022/08/27 07:29:46;;;;;;;1.88;0.70;;;19.10;99.90;;;;;;5095610;28;20044;-66
2022/08/27 07:32:12;;;;;;;1.35;0.63;;;19.20;1.00;;;;;;5094120;28;20058;-66
2022/08/27 07:34:38;;;;;;;2.45;0.85;;;19.10;99.90;;;;;;5095542;28;20039;-67
2022/08/27 07:37:03;;;;;;;3.25;0.90;;;19.20;99.90;;;;;;5095274;28;20426;-67
2022/08/27 07:39:29;;;;;;;2.53;0.60;;;19.10;61.20;;;;;;5093872;28;20039;-66
2022/08/27 07:44:40;;;;;;;0.85;0.45;;;19.30;1.00;;;;;;5095609;28;20406;-65
2022/08/27 07:47:06;;;;;;;0.93;0.65;;;19.40;99.90;;;;;;5095347;28;20047;-65
2022/08/27 07:49:34;;;;;;;1.02;0.60;;;19.50;99.90;;;;;;5095236;28;20028;-67
2022/08/27 07:52:01;;;;;;;1.23;0.73;;;19.50;99.90;;;;;;5093421;28;20047;-66
2022/08/27 07:54:27;;;;;;;0.65;0.50;;;19.50;23.20;;;;;;5093362;28;20122;-67
2022/08/27 07:56:53;;;;;;;1.50;0.50;;;19.60;1.00;;;;;;5094748;28;20040;-66
2022/08/27 07:59:19;;;;;;;0.93;0.47;;;19.60;99.90;;;;;;5094816;28;20115;-67
2022/08/27 08:01:47;;;;;;;1.63;0.63;;;19.70;99.90;;;;;;5094597;28;20076;-67
2022/08/27 08:04:13;;;;;;;0.98;0.63;;;19.70;99.90;;;;;;5094675;28;20114;-68
2022/08/27 08:06:39;;;;;;;2.95;0.50;;;19.70;99.90;;;;;;5094714;28;20048;-68
2022/08/27 08:09:06;;;;;;;1.90;0.30;;;19.80;1.00;;;;;;5094915;28;20040;-67
2022/08/27 08:11:32;;;;;;;3.90;0.60;;;19.70;1.00;;;;;;5094493;28;20040;-66
2022/08/27 08:14:04;;;;;;;0.32;0.32;;;19.70;99.90;;;;;;5093203;28;20059;-66
2022/08/27 08:16:29;;;;;;;1.30;0.60;;;19.70;99.90;;;;;;5094664;28;20384;-65
2022/08/27 08:18:55;;;;;;;2.25;0.50;;;19.70;62.10;;;;;;5094394;28;20440;-66
2022/08/27 08:21:21;;;;;;;1.55;0.40;;;19.80;82.80;;;;;;5094449;28;20415;-67
2022/08/27 08:23:48;;;;;;;1.40;0.57;;;19.90;1.00;;;;;;5094425;28;20040;-63
2022/08/27 08:26:15;;;;;;;1.67;0.50;;;20.00;1.00;;;;;;5094298;28;20089;-63
2022/08/27 08:28:41;;;;;;;2.53;0.63;;;20.10;99.90;;;;;;5093053;28;20048;-62
2022/08/27 08:31:07;;;;;;;2.30;0.60;;;20.10;99.90;;;;;;5092922;28;20047;-62
2022/08/27 08:33:33;;;;;;;2.15;0.50;;;20.20;99.90;;;;;;5094227;28;20119;-63
2022/08/27 08:36:06;;;;;;;2.15;0.60;;;20.30;99.90;;;;;;5092674;28;20040;-63
2022/08/27 08:38:32;;;;;;;0.88;0.38;;;20.60;1.00;;;;;;5094214;28;20119;-65
2022/08/27 08:40:58;;;;;;;2.25;0.85;;;20.60;1.00;;;;;;5094321;28;20038;-65
2022/08/27 08:43:24;;;;;;;3.22;0.60;;;;;;;;;;5092688;28;20047;-65
2022/08/27 08:45:50;;;;;;;0.35;0.28;;;20.70;1.00;;;;;;5094123;28;20036;-66
2022/08/27 08:48:23;;;;;;;0.65;0.30;;;20.70;1.00;;;;;;5092656;28;20036;-66
2022/08/27 08:51:00;;;;;;;1.92;0.70;;;20.70;99.90;;;;;;5093725;28;20039;-66
2022/08/27 08:53:46;;;;;;;1.38;0.50;;;20.70;99.90;;;;;;5093796;28;20432;-66
2022/08/27 08:56:18;;;;;;;1.02;0.40;;;20.70;99.90;;;;;;5093596;28;20097;-65
2022/08/27 08:58:50;;;;;;;1.10;0.43;;;20.90;99.90;;;;;;5093836;28;20086;-66
2022/08/27 09:01:19;;;;;;;2.17;0.60;;;21.00;99.90;;;;;;5093373;28;20050;-67
2022/08/27 09:03:57;;;;;;;0.63;0.50;;;20.80;99.90;;;;;;5092690;28;20044;-66
2022/08/27 09:06:45;;;;;;;1.30;0.50;;;20.80;99.90;;;;;;5093745;28;20547;-66
2022/08/27 09:09:36;;;;;;;1.85;0.60;;;20.80;99.90;;;;;;5093771;28;20411;-66
2022/08/27 09:12:18;;;;;;;1.33;0.40;;;20.80;99.90;;;;;;5093807;28;20044;-66
2022/08/27 09:15:00;;;;;;;0.93;0.60;;;20.80;99.90;;;;;;5093283;28;20508;-66
2022/08/27 09:17:26;;;;;;;3.92;0.77;;;20.90;99.90;;;;;;5093543;28;20119;-66
2022/08/27 09:19:51;;;;;;;0.88;0.32;;;21.00;99.90;;;;;;5093326;28;20146;-66
2022/08/27 09:22:33;;;;;;;1.23;0.32;;;21.00;99.90;;;;;;5093554;28;20092;-66
2022/08/27 09:25:05;;;;;;;1.00;0.30;;;21.00;99.90;;;;;;5092381;28;20036;-65
2022/08/27 09:27:34;;;;;;;0.55;0.30;;;20.90;99.90;;;;;;5093076;28;20047;-66
2022/08/27 09:30:07;;;;;;;4.97;0.80;;;21.00;99.90;;;;;;5093471;28;20063;-65
2022/08/27 09:32:33;;;;;;;2.40;0.32;;;20.90;99.90;;;;;;5092070;28;20054;-66
2022/08/27 09:35:04;;;;;;;1.13;0.50;;;20.90;99.90;;;;;;5093348;28;20039;-66
2022/08/27 09:37:42;;;;;;;0.20;0.20;;;20.90;99.90;;;;;;5093034;28;20506;-67
2022/08/27 09:40:18;;;;;;;1.02;0.30;;;20.90;99.90;;;;;;5092999;28;20043;-66
2022/08/27 09:42:47;;;;;;;0.73;0.38;;;21.00;99.90;;;;;;5093006;28;20124;-66
2022/08/27 09:45:20;;;;;;;0.50;0.38;;;20.90;99.90;;;;;;5093276;28;20036;-66
2022/08/27 09:47:49;;;;;;;0.82;0.40;;;20.80;99.90;;;;;;5093275;28;20399;-66
2022/08/27 09:50:22;;;;;;;3.25;0.40;;;20.90;99.90;;;;;;5093087;28;20036;-66
2022/08/27 09:52:53;;;;;;;2.50;0.30;;;21.00;99.90;;;;;;5092991;28;20036;-66
2022/08/27 09:55:29;;;;;;;1.65;0.35;;;21.00;99.90;;;;;;5092738;28;20044;-66
2022/08/27 09:57:55;;;;;;;2.28;0.45;;;21.00;99.90;;;;;;5092876;28;20065;-66
2022/08/27 10:00:35;;;;;;;0.88;0.32;;;21.00;99.90;;;;;;5093043;28;20396;-67
2022/08/27 10:03:02;;;;;;;1.10;0.40;;;21.00;99.90;;;;;;5093077;28;20038;-66
2022/08/27 10:05:50;;;;;;;3.20;0.47;;;21.00;99.90;;;;;;5093038;28;20089;-66
2022/08/27 10:08:40;;;;;;;3.55;0.60;;;21.10;99.90;;;;;;5092718;28;20047;-67
2022/08/27 10:11:15;;;;;;;0.50;0.30;;;21.20;99.90;;;;;;5093010;28;20036;-66
2022/08/27 10:14:02;;;;;;;3.90;0.65;;;21.30;99.90;;;;;;5092684;28;20052;-67
2022/08/27 10:17:05;;;;;;;1.13;0.32;;;21.30;99.90;;;;;;5093184;28;20040;-67
2022/08/27 10:20:06;;;;;;;0.60;0.52;;;21.30;99.90;;;;;;5096650;28;20040;-66
2022/08/27 10:22:59;;;;;;;2.35;0.47;;;21.40;99.90;;;;;;5096874;28;20486;-66
2022/08/27 10:25:30;;;;;;;0.70;0.35;;;21.40;99.90;;;;;;5095266;28;20043;-66
2022/08/27 10:28:32;;;;;;;1.35;0.60;;;21.60;99.90;;;;;;5096799;28;20480;-66
2022/08/27 10:31:01;;;;;;;2.53;0.50;;;21.60;99.90;;;;;;5096691;28;20098;-67
2022/08/27 10:33:55;;;;;;;1.23;0.50;;;21.50;99.90;;;;;;5095049;28;20044;-66
2022/08/27 10:36:54;;;;;;;0.45;0.30;;;21.40;99.90;;;;;;5096518;28;20372;-66
2022/08/27 10:39:43;;;;;;;0.73;0.50;;;21.30;99.90;;;;;;5094959;28;20044;-66
2022/08/27 10:42:17;;;;;;;2.47;0.50;;;21.20;99.90;;;;;;5096521;28;20036;-67
2022/08/27 10:44:52;;;;;;;1.15;0.45;;;21.20;99.90;;;;;;5096405;28;20040;-66
2022/08/27 10:47:31;;;;;;;1.42;0.47;;;21.10;99.90;;;;;;5096365;28;20452;-65
2022/08/27 10:50:19;;;;;;;1.80;0.60;;;21.10;99.90;;;;;;5096380;28;20035;-66
2022/08/27 10:52:54;;;;;;;1.02;0.40;;;21.00;99.90;;;;;;5095983;28;20079;-66
2022/08/27 10:55:34;;;;;;;1.17;0.60;;;21.00;99.90;;;;;;5095917;28;20040;-65
2022/08/27 10:58:18;;;;;;;0.75;0.30;;;21.00;99.90;;;;;;5095891;28;20043;-65
2022/08/27 11:01:18;;;;;;;2.63;0.40;;;21.10;99.90;;;;;;5094638;28;20044;-66
2022/08/27 11:03:51;;;;;;;5.80;0.43;;;21.10;99.90;;;;;;5095829;28;20039;-66
2022/08/27 11:06:17;;;;;;;2.45;0.70;;;21.20;99.90;;;;;;5096330;28;20399;-67
2022/08/27 11:08:50;;;;;;;1.08;0.35;;;21.20;99.90;;;;;;5096001;28;20119;-65
2022/08/27 11:11:45;;;;;;;1.95;0.45;;;21.20;99.90;;;;;;5095513;28;20040;-65
2022/08/27 11:14:39;;;;;;;1.13;0.38;;;21.20;99.90;;;;;;5089390;28;20052;-65
2022/08/27 11:17:28;;;;;;;2.50;0.50;;;21.30;99.90;;;;;;5080395;28;20058;-65
2022/08/27 11:20:13;;;;;;;5.18;0.65;;;21.30;99.90;;;;;;5095666;28;20047;-65
2022/08/27 11:22:38;;;;;;;1.25;0.63;;;21.40;99.90;;;;;;5095684;28;20028;-66
2022/08/27 11:25:28;;;;;;;2.00;0.50;;;21.60;99.90;;;;;;5095304;28;20043;-66
2022/08/27 11:27:56;;;;;;;1.67;0.50;;;21.90;1.00;;;;;;5093922;28;20072;-65
2022/08/27 11:30:43;;;;;;;0.95;0.65;;;21.60;1.00;;;;;;5095547;28;20062;-65
2022/08/27 11:33:17;;;;;;;0.85;0.30;;;21.70;1.00;;;;;;5095397;28;20039;-65
2022/08/27 11:36:02;;;;;;;1.75;0.73;;;21.60;99.90;;;;;;5095309;28;20044;-65
2022/08/27 11:38:49;;;;;;;0.20;0.20;;;21.40;99.90;;;;;;5095317;28;20036;-65
2022/08/27 11:41:34;;;;;;;3.60;0.45;;;21.40;99.90;;;;;;5095252;28;20032;-66
2022/08/27 11:44:01;;;;;;;1.77;0.40;;;21.70;99.90;;;;;;5094746;28;20109;-65
2022/08/27 11:46:46;;;;;;;1.38;0.30;;;21.60;99.90;;;;;;5093945;28;20052;-65
2022/08/27 11:49:25;;;;;;;1.42;0.43;;;21.60;99.90;;;;;;5095156;28;20556;-66
2022/08/27 11:52:01;;;;;;;3.83;0.57;;;21.70;99.90;;;;;;5095081;28;20047;-66
2022/08/27 11:54:48;;;;;;;2.00;0.30;;;21.80;99.90;;;;;;5094636;28;20051;-66
2022/08/27 11:57:33;;;;;;;3.22;0.50;;;22.00;99.90;;;;;;5093269;28;20055;-63
2022/08/27 12:00:18;;;;;;;0.60;0.30;;;21.90;99.90;;;;;;5094512;28;20043;-66
2022/08/27 12:02:59;;;;;;;0.88;0.50;;;21.90;99.90;;;;;;5094825;28;20032;-66
2022/08/27 12:05:34;;;;;;;3.85;0.50;;;21.70;99.90;;;;;;5094517;28;20044;-66
2022/08/27 12:08:15;;;;;;;2.05;0.55;;;21.70;99.90;;;;;;5094448;28;20078;-65
2022/08/27 12:11:02;;;;;;;0.28;0.20;;;22.00;99.90;;;;;;5094747;28;20040;-66
2022/08/27 12:13:34;;;;;;;1.10;0.40;;;;;;;;;;5094147;28;20128;-66
2022/08/27 12:16:19;;;;;;;0.52;0.40;;;22.50;99.90;;;;;;5092902;28;20055;-66
2022/08/27 12:19:01;;;;;;;1.00;0.55;;;22.60;99.90;;;;;;5094542;28;20055;-66
2022/08/27 12:21:35;;;;;;;1.45;0.40;;;22.50;99.90;;;;;;5094390;28;20043;-66
2022/08/27 12:24:29;;;;;;;2.03;0.40;;;22.10;99.90;;;;;;5092781;28;20066;-64
2022/08/27 12:27:13;;;;;;;2.53;0.40;;;22.10;99.90;;;;;;5093003;28;20518;-65
2022/08/27 12:29:46;;;;;;;2.05;0.60;;;22.40;99.90;;;;;;5093949;28;20047;-65
2022/08/27 12:32:36;;;;;;;0.98;0.40;;;22.50;99.90;;;;;;5093753;28;20123;-66
2022/08/27 12:35:14;;;;;;;0.30;0.20;;;22.50;97.50;;;;;;5093886;28;20036;-65
2022/08/27 12:37:48;;;;;;;1.38;0.30;;;22.50;96.80;;;;;;5093877;28;20048;-66
2022/08/27 12:40:25;;;;;;;3.78;0.40;;;22.40;97.00;;;;;;5093703;28;20043;-66
2022/08/27 12:43:03;;;;;;;0.52;0.30;;;22.30;96.00;;;;;;5093741;28;20043;-64
2022/08/27 12:45:29;;;;;;;0.47;0.30;;;22.10;94.30;;;;;;5093936;28;20059;-66
2022/08/27 12:47:57;;;;;;;0.47;0.30;;;22.10;96.00;;;;;;5093819;28;20438;-65
2022/08/27 12:50:26;;;;;;;4.32;0.50;;;22.30;95.40;;;;;;5093964;28;20039;-66
2022/08/27 12:53:04;;;;;;;2.00;0.35;;;22.00;92.90;;;;;;5092617;28;20043;-66
2022/08/27 12:55:58;;;;;;;1.45;0.60;;;22.20;92.70;;;;;;5093383;28;20036;-66
2022/08/27 12:58:46;;;;;;;0.93;0.38;;;22.60;94.60;;;;;;5093819;28;20360;-66
2022/08/27 13:01:32;;;;;;;0.75;0.40;;;22.80;93.00;;;;;;5093778;28;20122;-66
2022/08/27 13:03:59;;;;;;;7.07;0.50;;;22.60;90.70;;;;;;5093615;28;20418;-66
2022/08/27 13:06:32;;;;;;;3.78;0.50;;;22.50;90.90;;;;;;5093647;28;20039;-66
2022/08/27 13:09:01;;;;;;;0.60;0.50;;;22.40;88.40;;;;;;5092357;28;20369;-66
2022/08/27 13:11:46;;;;;;;1.30;0.38;;;22.40;90.90;;;;;;5093282;28;20131;-66
2022/08/27 13:14:21;;;;;;;1.85;0.40;;;22.60;85.90;;;;;;5093078;28;20056;-66
2022/08/27 13:16:59;;;;;;;4.20;0.50;;;22.30;81.30;;;;;;5093288;28;20138;-64